• Join FlightAware (Why Join?)
  • Login
  • US Flag 
03:40PM EST


 

Airport Tracker/Info


-or-


 

Live Flight TrackerFlight Track Log ✈ UAL33 ✈ 19-Apr-2013 ✈ KLAX - KJFK

Flight Track Log - Related Links

Times and Time Zones

All times are in EDT time to prevent confusion due to time zone crossing. See the UAL33 flight status page for this flight to view local times or setup timezone preferences in your user account.

Time Position Orientation Groundspeed Altitude Reporting Facility
EDT Latitude Longitude Course Direction KTS MPH feet Rate Location/Type
03:19PM 34.1347 -118.0640 59° Northeast  Level FlightAware Approximate
03:19PM 33.8280 -118.5640 59° Northeast 280 322 8,100  Level FlightAware
03:20PM 34.2028 -117.9279 59° Northeast  Level FlightAware Approximate
03:20PM 33.8170 -118.5320 112° Southeast 278 320 9,100  Level FlightAware
03:20PM 33.8310 -118.4870 69° East 285 328 10,200 1,860 Climbing FlightAware
03:20PM 33.8510 -118.4700 35° Northeast 302 348 10,500 1,500 Climbing FlightAware
03:21PM 33.9080 -118.4370 26° Northeast 342 394 11,700 2,040 Climbing FlightAware
03:21PM 33.9290 -118.4190 35° Northeast 351 404 12,400 2,580 Climbing FlightAware
03:22PM 33.9680 -118.3540 54° Northeast 367 422 14,100 2,580 Climbing FlightAware
03:23PM 34.0100 -118.2780 56° Northeast 375 432 16,100 2,460 Climbing FlightAware
03:23PM 34.0490 -118.2070 56° Northeast 386 444 17,600 2,220 Climbing FlightAware
03:24PM 34.0900 -118.1350 55° Northeast 395 455 19,100 2,220 Climbing FlightAware
03:25PM 34.1380 -118.0490 56° Northeast 406 467 20,800 2,040 Climbing FlightAware
03:26PM 34.1810 -117.9740 55° Northeast 416 479 22,000 1,800 Climbing FlightAware
03:26PM 34.2240 -117.8960 56° Northeast 424 488 23,200 1,740 Climbing FlightAware
03:27PM 34.2730 -117.8090 56° Northeast 432 497 24,500 1,800 Climbing FlightAware
03:28PM 34.3180 -117.7290 56° Northeast 438 504 25,800 1,800 Climbing FlightAware
03:28PM 34.3710 -117.6340 56° Northeast 446 513 27,100 1,740 Climbing FlightAware
03:29PM 34.4170 -117.5510 56° Northeast 446 513 28,300 1,620 Climbing FlightAware
03:30PM 34.4620 -117.4690 56° Northeast 452 520 29,300 1,380 Climbing FlightAware
03:30PM 34.5150 -117.3740 56° Northeast 459 528 30,300 1,320 Climbing FlightAware
03:31PM 34.5620 -117.2890 56° Northeast 461 531 31,200 1,740 Climbing FlightAware
03:32PM 34.6140 -117.1940 56° Northeast 452 520 32,800 1,260 Climbing FlightAware
03:33PM 34.6630 -117.1060 56° Northeast 456 525 33,000 120 Climbing FlightAware
03:33PM 34.7100 -117.0200 56° Northeast 457 526 33,000  Level FlightAware
03:34PM 34.7600 -116.9290 56° Northeast 457 526 33,000  Level FlightAware
03:35PM 34.8080 -116.8410 56° Northeast 457 526 33,000  Level FlightAware
03:35PM 34.8580 -116.7500 56° Northeast 456 525 33,000  Level FlightAware
03:36PM 34.9070 -116.6600 56° Northeast 456 525 33,000  Level FlightAware
03:37PM 34.9600 -116.5670 55° Northeast 451 519 33,000  Level FlightAware
03:37PM 35.0090 -116.4970 49° Northeast 454 522 33,000 180 Level FlightAware
03:38PM 35.0500 -116.3900 65° Northeast 464 534 33,300 960 Climbing FlightAware
03:39PM 35.0770 -116.2780 74° East 462 532 34,500 1,380 Climbing FlightAware
03:40PM 35.1000 -116.1800 74° East 462 532 35,300 1,260 Climbing FlightAware
03:40PM 35.1270 -116.0670 74° East 459 528 36,300 1,080 Climbing FlightAware
03:41PM 35.1500 -115.9660 74° East 461 531 36,900 480 Climbing FlightAware
03:42PM 35.1720 -115.8690 74° East 462 532 37,000 60 Climbing FlightAware
03:42PM 35.2000 -115.7510 74° East 466 536 37,000  Level FlightAware
03:43PM 35.2220 -115.6520 75° East 468 539 37,000  Level FlightAware
03:44PM 35.2480 -115.5350 75° East 468 539 37,000  Level FlightAware
03:44PM 35.2710 -115.4350 74° East 468 539 37,000  Level FlightAware
03:45PM 35.2970 -115.3210 74° East 468 539 37,000  Level FlightAware
03:46PM 35.3200 -115.2170 75° East 467 537 37,000  Level FlightAware
03:47PM 35.3440 -115.1130 74° East 467 537 37,000  Level FlightAware
03:48PM 35.3770 -114.9620 75° East 465 535 37,000  Level FlightAware
03:48PM 35.4000 -114.8610 74° East 463 533 37,000  Level FlightAware
03:49PM 35.4230 -114.7580 75° East 460 529 37,000  Level FlightAware
03:50PM 35.4480 -114.6480 74° East 459 528 37,000  Level FlightAware
03:50PM 35.4700 -114.5480 75° East 458 527 37,000  Level FlightAware
03:51PM 35.4920 -114.4480 75° East 458 527 37,000  Level FlightAware
03:52PM 35.5170 -114.3330 75° East 457 526 37,000 -360 Level FlightAware
03:52PM 35.5390 -114.2370 74° East 458 527 36,500 -1,080 Descending FlightAware
03:53PM 35.5640 -114.1220 75° East 460 529 35,500 -1,080 Descending FlightAware
03:54PM 35.5860 -114.0200 75° East 456 525 35,000 -360 Descending FlightAware
03:55PM 35.6100 -113.9070 75° East 454 522 35,000  Level FlightAware
03:55PM 35.6320 -113.8060 75° East 455 524 35,000  Level FlightAware
03:56PM 35.6540 -113.7070 75° East 458 527 35,000  Level FlightAware
03:57PM 35.6770 -113.5960 76° East 461 531 35,000  Level FlightAware
03:57PM 35.6990 -113.4950 75° East 463 533 35,000  Level FlightAware
03:58PM 35.7230 -113.3800 76° East 464 534 35,000  Level FlightAware
03:59PM 35.7450 -113.2770 75° East 465 535 35,000  Level FlightAware
03:59PM 35.7670 -113.1720 75° East 466 536 35,000  Level FlightAware
04:00PM 35.7800 -113.1080 76° East 465 535 35,000  Level FlightAware
04:01PM 35.8030 -112.9960 76° East 464 534 35,000  Level FlightAware
04:01PM 35.8270 -112.8800 76° East 462 532 35,000  Level FlightAware
04:02PM 35.8480 -112.7760 76° East 461 531 35,000  Level FlightAware
04:03PM 35.8710 -112.6630 76° East 461 531 35,000  Level FlightAware
04:03PM 35.8920 -112.5620 76° East 459 528 35,000  Level FlightAware
04:04PM 35.9150 -112.4480 76° East 458 527 35,000  Level FlightAware
04:05PM 35.9360 -112.3430 76° East 458 527 35,000  Level FlightAware
04:05PM 35.9550 -112.2460 76° East 456 525 35,000  Level FlightAware
04:06PM 35.9770 -112.1350 76° East 456 525 35,000  Level FlightAware
04:07PM 35.9970 -112.0320 76° East 456 525 35,000  Level FlightAware
04:08PM 36.0180 -111.9280 76° East 456 525 35,000  Level FlightAware
04:08PM 36.0350 -111.8420 76° East 456 525 35,000  Level FlightAware
04:09PM 36.0530 -111.7560 75° East 456 525 35,000  Level FlightAware
04:10PM 36.0700 -111.6700 76° East 456 525 35,000  Level FlightAware
04:10PM 36.0870 -111.5840 76° East 456 525 35,000  Level FlightAware
04:11PM 36.1050 -111.4980 75° East 456 525 35,000  Level FlightAware
04:12PM 36.1260 -111.3900 76° East 456 525 35,000  Level FlightAware
04:12PM 36.1440 -111.3040 75° East 456 525 35,000  Level FlightAware
04:13PM 36.1610 -111.2180 76° East 456 525 35,000  Level FlightAware
04:14PM 36.1780 -111.1310 76° East 456 525 35,000  Level FlightAware
04:15PM 36.2000 -111.0240 76° East 456 525 35,000  Level FlightAware
04:15PM 36.2170 -110.9370 76° East 456 525 35,000  Level FlightAware
04:16PM 36.2350 -110.8510 75° East 456 525 35,000  Level FlightAware
04:17PM 36.2520 -110.7650 76° East 456 525 35,000  Level FlightAware
04:17PM 36.2878 -110.4739 76° East 461 531 35,000  Level Denver Center
04:18PM 36.3261 -110.2900 75° East 461 531 35,000  Level Denver Center
04:19PM 36.3578 -110.1364 76° East 462 532 35,000  Level Denver Center
04:20PM 36.3889 -109.9797 76° East 462 532 35,000  Level Denver Center
04:21PM 36.4181 -109.8328 76° East 460 529 35,000  Level Denver Center
04:22PM 36.4514 -109.6592 77° East 462 532 35,000  Level Denver Center
04:23PM 36.4806 -109.5111 76° East 461 531 35,000  Level Denver Center
04:25PM 36.5139 -109.3383 76° East 460 529 35,000  Level Denver Center
04:26PM 36.5431 -109.1897 76° East 460 529 35,000  Level Denver Center
04:27PM 36.5764 -109.0178 76° East 457 526 35,000  Level Denver Center
04:28PM 36.6047 -108.8700 77° East 456 525 35,000  Level Denver Center
04:29PM 36.6319 -108.7219 77° East 457 526 35,000  Level Denver Center
04:30PM 36.6647 -108.5503 77° East 454 522 35,000  Level Denver Center
04:31PM 36.6925 -108.4008 77° East 459 528 35,000  Level Denver Center
04:32PM 36.7250 -108.2219 77° East 470 541 35,000  Level Denver Center
04:33PM 36.7556 -108.0711 76° East 470 541 35,000  Level Denver Center
04:34PM 36.8025 -107.9011 71° East 466 536 35,000  Level Denver Center
04:35PM 36.8422 -107.7556 71° East 462 532 35,000  Level Denver Center
04:36PM 36.8869 -107.5864 72° East 461 531 35,000  Level Denver Center
04:37PM 36.9272 -107.4417 71° East 460 529 35,000  Level Denver Center
04:38PM 36.9656 -107.2953 72° East 462 532 35,000  Level Denver Center
04:39PM 37.0108 -107.1250 72° East 463 533 35,000  Level Denver Center
04:40PM 37.0497 -106.9803 71° East 460 529 35,000  Level Denver Center
04:41PM 37.0933 -106.8075 72° East 464 534 35,000  Level Denver Center
04:42PM 37.1344 -106.6622 70° East 463 533 35,000  Level Denver Center
04:43PM 37.1797 -106.4900 72° East 465 535 35,000  Level Denver Center
04:44PM 37.2178 -106.3422 72° East 466 536 35,000  Level Denver Center
04:45PM 37.2619 -106.1683 72° East 468 539 35,000  Level Denver Center
04:51PM 37.4253 -105.2380 72° East 486 559 35,000  Level FlightAware ADS-B
04:51PM 37.4364 -105.1520 81° East 487 560 35,000  Level FlightAware ADS-B
04:52PM 37.4474 -105.0670 81° East 490 564 35,000  Level FlightAware ADS-B
04:52PM 37.4584 -104.9810 81° East 491 565 35,000  Level FlightAware ADS-B
04:53PM 37.4694 -104.8940 81° East 492 566 35,000  Level FlightAware ADS-B
04:53PM 37.4807 -104.8050 81° East 493 567 35,000  Level FlightAware ADS-B
04:54PM 37.4953 -104.6880 81° East 494 568 35,000  Level FlightAware ADS-B
04:55PM 37.5245 -104.4540 81° East 496 571 35,000  Level FlightAware ADS-B
04:56PM 37.5374 -104.3500 81° East 497 572 35,000  Level FlightAware ADS-B
04:57PM 37.5494 -104.2510 81° East 497 572 35,000  Level FlightAware ADS-B
04:57PM 37.5598 -104.1640 81° East 498 573 35,000  Level FlightAware ADS-B
04:58PM 37.5705 -104.0770 81° East 498 573 35,000  Level FlightAware ADS-B
04:58PM 37.5830 -103.9720 81° East 498 573 35,000  Level FlightAware ADS-B
04:59PM 37.5987 -103.8410 81° East 498 573 35,000  Level FlightAware ADS-B
05:00PM 37.6093 -103.7510 82° East 498 573 35,000  Level FlightAware ADS-B
05:00PM 37.6198 -103.6610 82° East 495 570 35,000  Level FlightAware ADS-B
05:01PM 37.6302 -103.5720 82° East 495 570 35,000  Level FlightAware ADS-B
05:01PM 37.6407 -103.4820 82° East 495 570 35,000  Level FlightAware ADS-B
05:02PM 37.6510 -103.3940 82° East 494 568 35,000  Level FlightAware ADS-B
05:02PM 37.6609 -103.3070 82° East 493 567 35,000  Level FlightAware ADS-B
05:03PM 37.6709 -103.2200 82° East 492 566 35,000  Level FlightAware ADS-B
05:03PM 37.6805 -103.1350 82° East 492 566 35,000  Level FlightAware ADS-B
05:04PM 37.6903 -103.0490 82° East 492 566 35,000  Level FlightAware ADS-B
05:04PM 37.6999 -102.9630 82° East 493 567 35,000  Level FlightAware ADS-B
05:05PM 37.7095 -102.8770 82° East 493 567 35,000  Level FlightAware ADS-B
05:05PM 37.7191 -102.7900 82° East 494 568 35,000  Level FlightAware ADS-B
05:06PM 37.7287 -102.7030 82° East 495 570 35,000  Level FlightAware ADS-B
05:06PM 37.7382 -102.6170 82° East 495 570 35,000  Level FlightAware ADS-B
05:07PM 37.7475 -102.5310 82° East 496 571 35,000  Level FlightAware ADS-B
05:07PM 37.7596 -102.4170 82° East 497 572 35,000  Level FlightAware ADS-B
05:08PM 37.7689 -102.3310 82° East 498 573 35,000  Level FlightAware ADS-B
05:09PM 37.7811 -102.1781 82° East 495 570 35,000  Level Denver Center
05:10PM 37.7972 -102.0136 83° East 494 568 35,000 300 Level Denver Center
05:11PM 37.8136 -101.8475 83° East 497 572 35,700 960 Climbing Denver Center
05:12PM 37.8311 -101.6550 83° East 494 568 37,000 600 Climbing Denver Center
05:13PM 37.8497 -101.4675 83° East 483 556 37,000  Level Kansas City Center
05:14PM 37.8658 -101.3039 83° East 486 559 37,000  Level Kansas City Center
05:15PM 37.8808 -101.1356 84° East 496 571 37,000  Level Kansas City Center
05:16PM 37.8994 -100.9369 83° East 503 579 37,000  Level Denver Center
05:17PM 37.9153 -100.7653 83° East 505 581 37,000  Level Denver Center
05:18PM 37.9322 -100.5644 84° East 508 585 37,000  Level Kansas City Center
05:19PM 37.9450 -100.3953 84° East 505 581 37,000  Level Kansas City Center
05:20PM 37.9597 -100.1975 85° East 502 578 37,000  Level Kansas City Center
05:21PM 37.9736 -100.0294 84° East 501 577 37,000  Level Kansas City Center
05:22PM 37.9853 -99.8625 85° East 498 573 37,000  Level Kansas City Center
05:23PM 38.0008 -99.6678 84° East 496 571 37,000  Level Kansas City Center
05:24PM 38.0128 -99.5022 85° East 493 567 37,000  Level Kansas City Center
05:25PM 38.0269 -99.3078 85° East 495 570 37,000  Level Kansas City Center
05:27PM 38.0383 -99.1342 85° East 494 568 37,000  Level Kansas City Center
05:33PM 38.1310 -98.0060 85° East 507 583 37,000  Level FlightAware
05:33PM 38.1360 -97.9210 86° East 508 585 37,000  Level FlightAware
05:34PM 38.1440 -97.7890 86° East 510 587 37,000  Level FlightAware
05:35PM 38.1530 -97.6370 86° East 511 588 37,000  Level FlightAware
05:36PM 38.1600 -97.5120 86° East 511 588 37,000  Level FlightAware
05:36PM 38.1680 -97.3770 86° East 513 590 37,000  Level FlightAware
05:37PM 38.1740 -97.2580 86° East 513 590 37,000  Level FlightAware
05:38PM 38.1810 -97.1300 86° East 514 592 37,000  Level FlightAware
05:38PM 38.1870 -97.0220 86° East 514 592 37,000  Level FlightAware
05:39PM 38.1940 -96.8830 86° East 515 593 37,000  Level FlightAware
05:40PM 38.2000 -96.7620 86° East 515 593 37,000  Level FlightAware
05:40PM 38.2060 -96.6590 86° East 515 593 37,000  Level FlightAware
05:41PM 38.2120 -96.5560 86° East 515 593 37,000  Level FlightAware
05:42PM 38.2170 -96.4540 86° East 515 593 37,000  Level FlightAware
05:43PM 38.2240 -96.3250 86° East 515 593 37,000  Level FlightAware
05:43PM 38.2280 -96.2480 86° East 515 593 37,000  Level FlightAware
05:44PM 38.2360 -96.1190 85° East 515 593 37,000  Level FlightAware
05:45PM 38.2410 -96.0160 86° East 515 593 37,000  Level FlightAware
05:45PM 38.2470 -95.9130 86° East 515 593 37,000  Level FlightAware
05:46PM 38.2520 -95.5670 89° East 516 594 37,000  Level FlightAware
05:47PM 38.2560 -95.4650 87° East 516 594 37,000  Level FlightAware
05:48PM 38.2620 -95.3070 87° East 516 594 37,000  Level FlightAware
05:48PM 38.2660 -95.1730 88° East 516 594 37,000  Level FlightAware
05:49PM 38.2710 -95.0530 87° East 516 594 37,000  Level FlightAware
05:50PM 38.2750 -94.9300 88° East 516 594 37,000  Level FlightAware
05:51PM 38.2790 -94.7940 88° East 516 594 37,000  Level FlightAware
05:51PM 38.2830 -94.6710 88° East 516 594 37,000  Level FlightAware
05:52PM 38.2870 -94.5380 88° East 516 594 37,000  Level FlightAware
05:53PM 38.3010 -94.4170 82° East 515 593 37,000  Level FlightAware
05:53PM 38.3190 -94.3120 78° East 516 594 37,000  Level FlightAware
05:54PM 38.3460 -94.1650 77° East 516 594 37,000  Level FlightAware
05:55PM 38.3680 -94.0430 77° East 516 594 37,000  Level FlightAware
05:55PM 38.3900 -93.9160 77° East 516 594 37,000  Level FlightAware
05:56PM 38.4110 -93.7980 77° East 517 595 37,000  Level FlightAware
05:57PM 38.4320 -93.6800 77° East 517 595 37,000  Level FlightAware
05:58PM 38.4560 -93.5440 77° East 516 594 37,000  Level FlightAware
05:58PM 38.4750 -93.4290 78° East 516 594 37,000  Level FlightAware
05:59PM 38.4970 -93.3030 77° East 515 593 37,000  Level FlightAware
06:00PM 38.5190 -93.1720 78° East 516 594 37,000  Level FlightAware
06:00PM 38.5390 -93.0640 77° East 516 594 37,000  Level FlightAware
06:01PM 38.5570 -92.9630 77° East 516 594 37,000  Level FlightAware
06:02PM 38.5750 -92.8620 77° East 516 594 37,000  Level FlightAware
06:02PM 38.5940 -92.7610 76° East 516 594 37,000  Level FlightAware
06:03PM 38.6160 -92.6340 77° East 516 594 37,000  Level FlightAware
06:04PM 38.6350 -92.5330 76° East 516 594 37,000  Level FlightAware
06:04PM 38.6530 -92.4320 77° East 516 594 37,000  Level FlightAware
06:05PM 38.6710 -92.3300 77° East 516 594 37,000  Level FlightAware
06:06PM 38.6890 -92.2290 77° East 516 594 37,000  Level FlightAware
06:07PM 38.7120 -92.1020 77° East 516 594 37,000  Level FlightAware
06:07PM 38.7300 -92.0010 77° East 516 594 37,000  Level FlightAware
06:08PM 38.7490 -91.9000 76° East 516 594 37,000  Level FlightAware
06:09PM 38.7670 -91.7980 77° East 516 594 37,000  Level FlightAware
06:09PM 38.7850 -91.6970 77° East 516 594 37,000  Level FlightAware
06:10PM 38.8270 -91.2590 83° East 537 618 37,000  Level FlightAware
06:11PM 38.8480 -91.1210 79° East 538 619 37,000  Level FlightAware
06:11PM 38.8670 -90.9970 79° East 539 620 37,000  Level FlightAware
06:12PM 38.8860 -90.8710 79° East 539 620 37,000  Level FlightAware
06:13PM 38.9060 -90.7360 79° East 540 621 37,000  Level FlightAware
06:14PM 38.9250 -90.6040 79° East 541 623 37,000  Level FlightAware
06:14PM 38.9440 -90.4750 79° East 541 623 37,000  Level FlightAware
06:15PM 38.9630 -90.3420 80° East 540 621 37,000  Level FlightAware
06:16PM 38.9840 -90.1940 80° East 540 621 37,000  Level FlightAware
06:16PM 39.0020 -90.0720 79° East 541 623 37,000  Level FlightAware
06:17PM 39.0240 -89.9410 78° East 542 624 37,000  Level FlightAware
06:18PM 39.0570 -89.8130 72° East 545 627 37,000  Level FlightAware
06:18PM 39.0880 -89.6800 73° East 545 627 37,000  Level FlightAware
06:19PM 39.1200 -89.5460 73° East 544 626 37,000  Level FlightAware
06:20PM 39.1530 -89.4070 73° East 546 628 37,000  Level FlightAware
06:21PM 39.1820 -89.2860 73° East 546 628 37,000  Level FlightAware
06:21PM 39.2130 -89.1530 73° East 547 629 37,000  Level FlightAware
06:22PM 39.2450 -89.0170 73° East 547 629 37,000  Level FlightAware
06:23PM 39.2730 -88.8920 74° East 547 629 37,000  Level FlightAware
06:23PM 39.3000 -88.7760 73° East 549 632 37,000  Level FlightAware
06:24PM 39.3310 -88.6390 74° East 549 632 37,000  Level FlightAware
06:25PM 39.3650 -88.4910 73° East 549 632 37,000  Level FlightAware
06:26PM 39.3930 -88.3660 74° East 548 631 37,000  Level FlightAware
06:26PM 39.4200 -88.2470 74° East 545 627 37,000  Level FlightAware
06:27PM 39.4560 -88.0850 74° East 540 621 37,000  Level FlightAware
06:28PM 39.4840 -87.9600 74° East 538 619 37,000  Level FlightAware
06:28PM 39.5100 -87.8430 74° East 536 617 37,000  Level FlightAware
06:29PM 39.5400 -87.7040 74° East 535 616 37,000  Level FlightAware
06:30PM 39.5670 -87.5810 74° East 534 615 37,000  Level FlightAware
06:30PM 39.5980 -87.4390 74° East 533 613 37,000  Level FlightAware
06:31PM 39.6240 -87.3180 74° East 532 612 37,000  Level FlightAware
06:32PM 39.6510 -87.1930 74° East 532 612 37,000  Level FlightAware
06:33PM 39.6800 -87.0580 74° East 534 615 37,000  Level FlightAware
06:33PM 39.7000 -86.9640 75° East 535 616 37,000  Level FlightAware
06:34PM 39.7320 -86.8150 74° East 535 616 37,000  Level FlightAware
06:35PM 39.7620 -86.6700 75° East 537 618 37,000  Level FlightAware
06:35PM 39.7870 -86.5490 75° East 538 619 37,000  Level FlightAware
06:36PM 39.8180 -86.4030 75° East 540 621 37,000  Level FlightAware
06:37PM 39.8530 -86.2370 75° East 544 626 37,000  Level FlightAware
06:38PM 39.8810 -86.1030 75° East 545 627 37,000  Level FlightAware
06:38PM 39.9100 -85.9660 75° East 548 631 37,000  Level FlightAware
06:39PM 39.9380 -85.8360 74° East 549 632 37,000  Level FlightAware
06:40PM 39.9690 -85.6910 74° East 550 633 37,000  Level FlightAware
06:41PM 40.0020 -85.5290 75° East 552 635 37,000  Level FlightAware
06:41PM 40.0240 -85.4220 75° East 551 634 37,000  Level FlightAware
06:42PM 40.0670 -85.2460 72° East 556 640 37,000  Level FlightAware
06:43PM 40.1070 -85.1280 66° East 560 644 37,000  Level FlightAware
06:43PM 40.1500 -85.0180 63° Northeast 560 644 37,000  Level FlightAware
06:44PM 40.2080 -84.8670 63° Northeast 559 643 37,000  Level FlightAware
06:45PM 40.2520 -84.7530 63° Northeast 559 643 37,000  Level FlightAware
06:46PM 40.3090 -84.6070 63° Northeast 559 643 37,000  Level FlightAware
06:46PM 40.3370 -84.5360 63° Northeast 559 643 37,000  Level FlightAware
06:47PM 40.3890 -84.4010 63° Northeast 559 643 37,000  Level FlightAware
06:47PM 40.4310 -84.2950 62° Northeast 559 643 37,000  Level FlightAware
06:48PM 40.4900 -84.1410 63° Northeast 560 644 37,000  Level FlightAware
06:49PM 40.5360 -84.0200 63° Northeast 559 643 37,000  Level FlightAware
06:50PM 40.5800 -83.8990 64° Northeast 558 642 37,000  Level FlightAware
06:50PM 40.6320 -83.7580 64° Northeast 558 642 37,000  Level FlightAware
06:51PM 40.6710 -83.6520 64° Northeast 560 644 37,000  Level FlightAware
06:52PM 40.7270 -83.5010 64° Northeast 561 646 37,000  Level FlightAware
06:52PM 40.7710 -83.3770 65° Northeast 563 648 37,000  Level FlightAware
06:53PM 40.8170 -83.2530 64° Northeast 564 649 37,000  Level FlightAware
06:54PM 40.8660 -83.1170 64° Northeast 564 649 37,000  Level FlightAware
06:54PM 40.9110 -82.9920 64° Northeast 566 651 37,000  Level FlightAware
06:55PM 40.9640 -82.8450 64° Northeast 567 652 37,000  Level FlightAware
06:56PM 41.0050 -82.7280 65° Northeast 566 651 37,000  Level FlightAware
06:56PM 41.0460 -82.6120 65° Northeast 566 651 37,000  Level FlightAware
06:57PM 41.1000 -82.4600 65° Northeast 568 654 37,000  Level FlightAware
06:58PM 41.1410 -82.3440 65° Northeast 568 654 37,000  Level FlightAware
06:59PM 41.1970 -82.1850 65° Northeast 568 654 37,000  Level FlightAware
06:59PM 41.2390 -82.0640 65° Northeast 568 654 37,000  Level FlightAware
07:00PM 41.2900 -81.9180 65° Northeast 567 652 37,000  Level FlightAware
07:01PM 41.3340 -81.7920 65° Northeast 567 652 37,000  Level FlightAware
07:01PM 41.3770 -81.6670 65° Northeast 566 651 37,000  Level FlightAware
07:02PM 41.4210 -81.5380 66° East 565 650 37,000  Level FlightAware
07:03PM 41.4680 -81.3990 66° East 564 649 37,000  Level FlightAware
07:04PM 41.5130 -81.2690 65° Northeast 562 647 37,000  Level FlightAware
07:04PM 41.5600 -81.1270 66° East 562 647 37,000  Level FlightAware
07:05PM 41.6020 -81.0040 65° Northeast 561 646 37,000  Level FlightAware
07:06PM 41.6500 -80.8590 66° East 560 644 37,000  Level FlightAware
07:06PM 41.6920 -80.7360 65° Northeast 558 642 37,000  Level FlightAware
07:07PM 41.7330 -80.6120 66° East 555 639 37,000  Level FlightAware
07:08PM 41.7790 -80.4710 66° East 550 633 37,000  Level FlightAware
07:08PM 41.8140 -80.3460 69° East 528 608 37,000  Level FlightAware
07:09PM 41.8330 -80.2040 80° East 501 577 37,000  Level FlightAware
07:10PM 41.8340 -80.0840 89° East 486 559 37,000  Level FlightAware
07:11PM 41.8300 -79.9620 92° East 491 565 37,000  Level FlightAware
07:11PM 41.8270 -79.8300 92° East 492 566 37,000  Level FlightAware
07:12PM 41.8230 -79.7000 92° East 488 562 37,000  Level FlightAware
07:13PM 41.8180 -79.5630 93° East 485 558 37,000  Level FlightAware
07:13PM 41.8150 -79.4880 93° East 484 557 37,000  Level FlightAware
07:14PM 41.8100 -79.3350 92° East 482 555 37,000  Level FlightAware
07:15PM 41.8050 -79.2170 93° East 482 555 37,000  Level FlightAware
07:15PM 41.7756 -79.1131 93° East 483 556 37,000  Level Cleveland Center
07:16PM 41.7689 -78.9322 93° East 483 556 37,000  Level Cleveland Center
07:17PM 41.7578 -78.7517 95° East 483 556 37,000  Level Cleveland Center
07:18PM 41.7506 -78.5736 93° East 478 550 37,000  Level Cleveland Center
07:20PM 41.7364 -78.2097 93° East 489 563 37,000  Level New York Center
07:27PM 41.6866 -77.0837 93° East 37,000  Level FlightAware ADS-B
07:27PM 41.6787 -77.0525 109° East 462 532 37,000  Level FlightAware ADS-B
07:27PM 41.6542 -76.9629 110° East 460 529 37,000  Level FlightAware ADS-B
07:28PM 41.6306 -76.8787 111° Southeast 461 531 37,000  Level FlightAware ADS-B
07:28PM 41.6045 -76.7854 110° East 463 533 37,000  Level FlightAware ADS-B
07:29PM 41.5822 -76.7050 110° East 464 534 37,000  Level FlightAware ADS-B
07:29PM 41.5580 -76.6185 110° East 465 535 37,000  Level FlightAware ADS-B
07:30PM 41.5352 -76.5363 110° East 466 536 37,000  Level FlightAware ADS-B
07:30PM 41.5124 -76.4551 111° Southeast 467 537 37,000  Level FlightAware ADS-B
07:31PM 41.4892 -76.3725 111° Southeast 469 540 37,000  Level FlightAware ADS-B
07:32PM 41.4663 -76.2917 111° Southeast 469 540 37,000  Level FlightAware ADS-B
07:32PM 41.4425 -76.2079 111° Southeast 470 541 37,000 -720 Level FlightAware ADS-B
07:33PM 41.4174 -76.1208 111° Southeast 476 548 36,300 -1,560 Descending FlightAware ADS-B
07:33PM 41.3941 -76.0381 111° Southeast 483 556 35,400 -1,740 Descending FlightAware ADS-B
07:34PM 41.3702 -75.9540 111° Southeast 486 559 34,600 -1,980 Descending FlightAware ADS-B
07:34PM 41.3457 -75.8673 111° Southeast 488 562 33,400 -2,640 Descending FlightAware ADS-B
07:35PM 41.3208 -75.7806 111° Southeast 493 567 31,900 -3,000 Descending FlightAware ADS-B
07:35PM 41.2957 -75.6960 112° Southeast 496 571 30,400 -3,240 Descending FlightAware ADS-B
07:36PM 41.2682 -75.6112 113° Southeast 501 577 28,700 -3,660 Descending FlightAware ADS-B
07:36PM 41.2391 -75.5247 114° Southeast 510 587 26,700 -3,600 Descending FlightAware ADS-B
07:37PM 41.2099 -75.4387 114° Southeast 509 586 25,100 -3,240 Descending FlightAware ADS-B
07:37PM 41.1807 -75.3532 114° Southeast 505 581 23,500 -2,040 Descending FlightAware ADS-B
07:38PM 41.1522 -75.2694 114° Southeast 497 572 23,100 -540 Descending FlightAware ADS-B
07:38PM 41.1232 -75.1848 114° Southeast 503 579 23,000 -120 Descending FlightAware ADS-B
07:39PM 41.0919 -75.0943 115° Southeast 505 581 23,000  Level FlightAware ADS-B
07:39PM 41.0640 -75.0121 114° Southeast 468 539 23,000  Level FlightAware ADS-B
07:40PM 41.0374 -74.9350 115° Southeast 439 505 23,000 -120 Level FlightAware ADS-B
07:40PM 41.0226 -74.8893 113° Southeast 427 491 22,900 -840 Descending FlightAware ADS-B
07:40PM 41.0087 -74.8260 106° East 417 480 22,400 -1,320 Descending FlightAware ADS-B
07:41PM 41.0046 -74.7951 100° East 412 474 22,100 -1,320 Descending FlightAware ADS-B
07:41PM 41.0037 -74.7797 94° East 409 471 22,000 -840 Descending FlightAware ADS-B
07:41PM 41.0044 -74.7572 88° East 407 468 21,900 -1,020 Descending FlightAware ADS-B
07:41PM 41.0073 -74.7347 80° East 406 467 21,700 -1,440 Descending FlightAware ADS-B
07:42PM 41.0228 -74.6620 74° East 405 466 21,000 -720 Descending FlightAware ADS-B
07:42PM 41.0384 -74.5905 74° East 400 460 21,000  Level FlightAware ADS-B
07:43PM 41.0538 -74.5191 74° East 396 456 21,000  Level FlightAware ADS-B
07:43PM 41.0691 -74.4487 74° East 401 461 21,000  Level FlightAware ADS-B
07:43PM 41.0751 -74.4188 75° East 401 461 21,000  Level FlightAware ADS-B
07:44PM 41.0777 -74.3811 85° East 396 456 21,000  Level FlightAware ADS-B
07:44PM 41.0753 -74.3452 95° East 389 448 21,000  Level FlightAware ADS-B
07:44PM 41.0698 -74.3174 105° East 382 440 21,000  Level FlightAware ADS-B
07:44PM 41.0630 -74.2956 112° Southeast 375 432 21,000  Level FlightAware ADS-B
07:44PM 41.0564 -74.2796 119° Southeast 369 425 21,000 -360 Level FlightAware ADS-B
07:44PM 41.0480 -74.2630 124° Southeast 362 417 20,900 -660 Descending FlightAware ADS-B
07:45PM 41.0365 -74.2453 131° Southeast 354 407 20,800 -720 Descending FlightAware ADS-B
07:45PM 40.9989 -74.2020 139° Southeast 340 391 20,400 -960 Descending FlightAware ADS-B
07:45PM 40.9747 -74.1758 141° Southeast 333 383 20,000 -960 Descending FlightAware ADS-B
07:46PM 40.9369 -74.1385 143° Southeast 317 365 19,600 -720 Descending FlightAware ADS-B
07:47PM 40.8999 -74.1028 144° Southeast 302 348 19,300 -840 Descending FlightAware ADS-B
07:47PM 40.8859 -74.0898 145° Southeast 300 345 19,000 -1,380 Descending FlightAware ADS-B
07:47PM 40.8697 -74.0743 144° Southeast 299 344 18,700 -1,320 Descending FlightAware ADS-B
07:47PM 40.8642 -74.0693 145° Southeast 296 341 18,600 -1,200 Descending FlightAware ADS-B
07:47PM 40.8578 -74.0643 149° Southeast 292 336 18,500 -1,320 Descending FlightAware ADS-B
07:48PM 40.8245 -74.0438 155° Southeast 286 329 17,900 -1,320 Descending FlightAware ADS-B
07:48PM 40.8128 -74.0372 157° South 286 329 17,700 -1,380 Descending FlightAware ADS-B
07:48PM 40.7871 -74.0233 158° South 287 330 17,200 -1,620 Descending FlightAware ADS-B
07:48PM 40.7754 -74.0171 158° South 286 329 16,900 -1,560 Descending FlightAware ADS-B
07:49PM 40.7486 -74.0029 158° South 286 329 16,400 -840 Descending FlightAware ADS-B
07:49PM 40.7139 -73.9849 159° South 286 329 16,200 -660 Descending FlightAware ADS-B
07:50PM 40.6767 -73.9651 158° South 276 318 15,800 -780 Descending FlightAware ADS-B
07:50PM 40.6408 -73.9457 158° South 258 297 15,400 -780 Descending FlightAware ADS-B
07:51PM 40.6039 -73.9253 157° South 249 287 15,000 -1,020 Descending FlightAware ADS-B
07:51PM 40.5710 -73.9077 158° South 250 288 14,300 -780 Descending FlightAware ADS-B
07:52PM 40.5380 -73.8901 158° South 254 292 14,200 -120 Descending FlightAware ADS-B
07:52PM 40.5155 -73.8783 158° South 256 295 14,200  Level FlightAware ADS-B
07:53PM 40.4814 -73.8603 158° South 258 297 14,200  Level FlightAware ADS-B
07:53PM 40.4480 -73.8427 158° South 256 295 14,200  Level FlightAware ADS-B
07:54PM 40.4167 -73.8261 158° South 251 289 14,200  Level FlightAware ADS-B
07:54PM 40.4091 -73.8225 160° South 246 283 14,200  Level FlightAware ADS-B
07:54PM 40.4039 -73.8211 168° South 241 277 14,200  Level FlightAware ADS-B
07:54PM 40.3969 -73.8206 177° South 235 270 14,200  Level FlightAware ADS-B
07:54PM 40.3882 -73.8226 190° South 230 265 14,200 -240 Level FlightAware ADS-B
07:54PM 40.3633 -73.8359 202° Southwest 233 268 14,100 -780 Descending FlightAware ADS-B
07:55PM 40.3337 -73.8541 205° Southwest 230 265 13,500 -1,260 Descending FlightAware ADS-B
07:55PM 40.3173 -73.8640 205° Southwest 229 264 13,100 -1,320 Descending FlightAware ADS-B
07:55PM 40.3113 -73.8670 201° Southwest 231 266 13,000 -1,200 Descending FlightAware ADS-B
07:55PM 40.3071 -73.8683 193° South 233 268 12,900 -1,380 Descending FlightAware ADS-B
07:55PM 40.3011 -73.8688 184° South 236 272 12,800 -1,200 Descending FlightAware ADS-B
07:56PM 40.2961 -73.8683 176° South 239 275 12,700 -1,200 Descending FlightAware ADS-B
07:56PM 40.2908 -73.8665 165° South 243 280 12,600 -1,140 Descending FlightAware ADS-B
07:56PM 40.2844 -73.8625 155° Southeast 251 289 12,500 -1,140 Descending FlightAware ADS-B
07:56PM 40.2793 -73.8575 143° Southeast 257 296 12,400 -1,140 Descending FlightAware ADS-B
07:56PM 40.2745 -73.8505 132° Southeast 265 305 12,300 -600 Descending FlightAware ADS-B
07:56PM 40.2718 -73.8450 123° Southeast 269 310 12,300 -360 Level FlightAware ADS-B
07:56PM 40.2659 -73.8254 112° Southeast 277 319 12,200 -720 Descending FlightAware ADS-B
07:57PM 40.2549 -73.7742 106° East 288 331 11,800 -840 Descending FlightAware ADS-B
07:57PM 40.2539 -73.7648 98° East 296 341 11,700 -600 Descending FlightAware ADS-B
07:57PM 40.2568 -73.7389 82° East 304 350 11,600 -540 Descending FlightAware ADS-B
07:57PM 40.2620 -73.7258 63° Northeast 312 359 11,500 -960 Descending FlightAware ADS-B
07:57PM 40.2664 -73.7180 54° Northeast 313 360 11,400 -900 Descending FlightAware ADS-B
07:58PM 40.2963 -73.6752 48° Northeast 315 362 11,000 -780 Descending FlightAware ADS-B
07:58PM 40.3284 -73.6309 46° Northeast 314 361 10,600 -840 Descending FlightAware ADS-B
07:59PM 40.3430 -73.6124 44° Northeast 312 359 10,400 -840 Descending FlightAware ADS-B
07:59PM 40.3613 -73.5971 32° Northeast 308 354 10,200 -780 Descending FlightAware ADS-B
07:59PM 40.3815 -73.5822 29° Northeast 308 354 10,000 -780 Descending FlightAware ADS-B
07:59PM 40.4012 -73.5674 30° Northeast 305 351 9,800 -780 Descending FlightAware ADS-B
08:00PM 40.4199 -73.5537 29° Northeast 304 350 9,600 -1,020 Descending FlightAware ADS-B
08:00PM 40.4391 -73.5394 30° Northeast 302 348 9,300 -960 Descending FlightAware ADS-B
08:00PM 40.4585 -73.5251 29° Northeast 300 345 9,100 -780 Descending FlightAware ADS-B
08:00PM 40.4781 -73.5109 29° Northeast 300 345 8,900 -720 Descending FlightAware ADS-B
08:01PM 40.4999 -73.4948 29° Northeast 300 345 8,700 -720 Descending FlightAware ADS-B
08:01PM 40.5200 -73.4800 29° Northeast 301 346 8,500 -900 Descending FlightAware ADS-B
08:01PM 40.5414 -73.4641 29° Northeast 300 345 8,200 -1,080 Descending FlightAware ADS-B
08:01PM 40.5550 -73.4539 30° Northeast 292 336 8,000 -840 Descending FlightAware ADS-B
08:02PM 40.5753 -73.4387 30° Northeast 276 318 7,800 -900 Descending FlightAware ADS-B
08:02PM 40.5940 -73.4243 30° Northeast 268 308 7,500 -900 Descending FlightAware ADS-B
08:02PM 40.6125 -73.4095 31° Northeast 261 300 7,300 -720 Descending FlightAware ADS-B
08:03PM 40.6293 -73.3959 32° Northeast 256 295 7,100 -720 Descending FlightAware ADS-B
08:03PM 40.6469 -73.3818 31° Northeast 256 295 6,900 -780 Descending FlightAware ADS-B
08:03PM 40.6623 -73.3696 31° Northeast 256 295 6,700 -720 Descending FlightAware ADS-B
08:04PM 40.7050 -73.3370 30° Northeast 255 293 6,200 -660 Descending FlightAware
08:04PM 40.7200 -73.3260 29° Northeast 252 290 6,100 -420 Descending FlightAware
08:05PM 40.7520 -73.3020 30° Northeast 255 293 5,900 -480 Descending FlightAware
08:05PM 40.7610 -73.2960 27° Northeast 252 290 5,800 -600 Descending FlightAware
08:05PM 40.7740 -73.2930 10° North 240 276 5,700 -540 Descending FlightAware
08:06PM 40.7970 -73.3140 325° Northwest 175 201 5,400 -600 Descending FlightAware
08:06PM 40.7980 -73.3320 274° West 165 190 5,200 -420 Descending FlightAware
08:06PM 40.7980 -73.3430 270° West 161 185 5,200  Level FlightAware
08:06PM 40.7980 -73.3690 270° West 162 186 5,200 -420 Level FlightAware
08:07PM 40.7980 -73.3890 270° West 159 183 4,900 -900 Descending FlightAware
08:07PM 40.7960 -73.4050 261° West 136 157 4,600 -780 Descending FlightAware
08:08PM 40.7710 -73.3910 157° South 209 241 4,100 -720 Descending FlightAware
08:08PM 40.7700 -73.3860 105° East 224 258 4,000 -900 Descending FlightAware
08:09PM 40.7920 -73.3460 54° Northeast 256 295 3,500 -780 Descending FlightAware
08:09PM 40.8210 -73.3260 28° Northeast 252 290 3,200 -300 Descending FlightAware
08:10PM 40.8640 -73.3060 19° North 252 290 3,200  Level FlightAware
08:10PM 40.8680 -73.3520 277° West 187 215 3,200 -600 Level FlightAware
08:10PM 40.8780 -73.3780 297° West 186 214 2,800 -1,020 Descending FlightAware
08:11PM 40.8890 -73.4070 297° West 185 213 2,300 -600 Descending FlightAware
08:11PM 40.8970 -73.4380 289° West 155 178 2,200 -120 Descending FlightAware
08:12PM 40.8940 -73.4600 260° West 147 169 2,200  Level FlightAware
08:12PM 40.8880 -73.4840 252° West 142 163 2,200  Level FlightAware